sensor_id;sensor_type;location;lat;lon;timestamp;P1;durP1;ratioP1;P2;durP2;ratioP2
30723;SDS011;17473;52.286;20.930;2023-01-29T00:01:57;9.40;;;5.47;;
30723;SDS011;17473;52.286;20.930;2023-01-29T00:04:25;9.87;;;6.07;;
30723;SDS011;17473;52.286;20.930;2023-01-29T00:06:52;7.17;;;5.03;;
30723;SDS011;17473;52.286;20.930;2023-01-29T00:09:19;11.63;;;6.00;;
30723;SDS011;17473;52.286;20.930;2023-01-29T00:11:46;9.50;;;6.17;;
30723;SDS011;17473;52.286;20.930;2023-01-29T00:14:13;8.63;;;5.53;;
30723;SDS011;17473;52.286;20.930;2023-01-29T00:16:40;11.77;;;6.70;;
30723;SDS011;17473;52.286;20.930;2023-01-29T00:19:08;11.20;;;6.47;;
30723;SDS011;17473;52.286;20.930;2023-01-29T00:21:35;9.73;;;6.63;;
30723;SDS011;17473;52.286;20.930;2023-01-29T00:24:02;10.57;;;6.47;;
30723;SDS011;17473;52.286;20.930;2023-01-29T00:26:29;9.67;;;6.20;;
30723;SDS011;17473;52.286;20.930;2023-01-29T00:28:57;10.70;;;6.17;;
30723;SDS011;17473;52.286;20.930;2023-01-29T00:31:25;10.33;;;5.77;;
30723;SDS011;17473;52.286;20.930;2023-01-29T00:33:53;8.03;;;5.90;;
30723;SDS011;17473;52.286;20.930;2023-01-29T00:36:20;10.30;;;5.93;;
30723;SDS011;17473;52.286;20.930;2023-01-29T00:38:53;10.13;;;5.67;;
30723;SDS011;17473;52.286;20.930;2023-01-29T00:41:26;8.13;;;4.97;;
30723;SDS011;17473;52.286;20.930;2023-01-29T00:44:14;9.43;;;5.43;;
30723;SDS011;17473;52.286;20.930;2023-01-29T00:47:00;10.23;;;5.30;;
30723;SDS011;17473;52.286;20.930;2023-01-29T00:49:28;10.17;;;5.07;;
30723;SDS011;17473;52.286;20.930;2023-01-29T00:52:03;6.97;;;4.60;;
30723;SDS011;17473;52.286;20.930;2023-01-29T00:54:51;7.57;;;4.47;;
30723;SDS011;17473;52.286;20.930;2023-01-29T00:57:21;13.27;;;4.40;;
30723;SDS011;17473;52.286;20.930;2023-01-29T00:59:50;6.53;;;4.23;;
30723;SDS011;17473;52.286;20.930;2023-01-29T01:02:17;9.47;;;4.37;;
30723;SDS011;17473;52.286;20.930;2023-01-29T01:05:03;6.00;;;4.00;;
30723;SDS011;17473;52.286;20.930;2023-01-29T01:07:33;7.10;;;4.27;;
30723;SDS011;17473;52.286;20.930;2023-01-29T01:10:00;7.17;;;4.53;;
30723;SDS011;17473;52.286;20.930;2023-01-29T01:12:46;8.17;;;4.60;;
30723;SDS011;17473;52.286;20.930;2023-01-29T01:15:34;6.87;;;4.63;;
30723;SDS011;17473;52.286;20.930;2023-01-29T01:18:03;8.83;;;4.50;;
30723;SDS011;17473;52.286;20.930;2023-01-29T01:20:32;8.23;;;4.50;;
30723;SDS011;17473;52.286;20.930;2023-01-29T01:23:01;8.27;;;4.23;;
30723;SDS011;17473;52.286;20.930;2023-01-29T01:25:29;5.70;;;3.57;;
30723;SDS011;17473;52.286;20.930;2023-01-29T01:27:57;6.03;;;3.80;;
30723;SDS011;17473;52.286;20.930;2023-01-29T01:30:27;6.63;;;4.23;;
30723;SDS011;17473;52.286;20.930;2023-01-29T01:32:54;10.80;;;4.73;;
30723;SDS011;17473;52.286;20.930;2023-01-29T01:35:22;6.50;;;4.17;;
30723;SDS011;17473;52.286;20.930;2023-01-29T01:37:49;6.70;;;4.13;;
30723;SDS011;17473;52.286;20.930;2023-01-29T01:40:19;8.17;;;4.73;;
30723;SDS011;17473;52.286;20.930;2023-01-29T01:42:53;8.13;;;4.67;;
30723;SDS011;17473;52.286;20.930;2023-01-29T01:48:03;5.93;;;4.27;;
30723;SDS011;17473;52.286;20.930;2023-01-29T01:53:34;5.90;;;4.40;;
30723;SDS011;17473;52.286;20.930;2023-01-29T01:56:12;8.83;;;4.87;;
30723;SDS011;17473;52.286;20.930;2023-01-29T01:58:50;8.57;;;4.57;;
30723;SDS011;17473;52.286;20.930;2023-01-29T02:01:23;7.80;;;4.73;;
30723;SDS011;17473;52.286;20.930;2023-01-29T02:03:57;8.40;;;4.83;;
30723;SDS011;17473;52.286;20.930;2023-01-29T02:07:14;8.23;;;4.97;;
30723;SDS011;17473;52.286;20.930;2023-01-29T02:10:18;8.50;;;5.17;;
30723;SDS011;17473;52.286;20.930;2023-01-29T02:12:46;9.33;;;5.30;;
30723;SDS011;17473;52.286;20.930;2023-01-29T02:15:13;10.20;;;5.70;;
30723;SDS011;17473;52.286;20.930;2023-01-29T02:17:40;8.57;;;5.57;;
30723;SDS011;17473;52.286;20.930;2023-01-29T02:20:10;7.23;;;5.10;;
30723;SDS011;17473;52.286;20.930;2023-01-29T02:29:21;10.77;;;6.03;;
30723;SDS011;17473;52.286;20.930;2023-01-29T02:32:07;9.37;;;6.23;;
30723;SDS011;17473;52.286;20.930;2023-01-29T02:34:59;14.30;;;7.03;;
30723;SDS011;17473;52.286;20.930;2023-01-29T02:37:56;11.87;;;6.60;;
30723;SDS011;17473;52.286;20.930;2023-01-29T02:40:53;9.57;;;6.50;;
30723;SDS011;17473;52.286;20.930;2023-01-29T02:43:28;11.00;;;7.07;;
30723;SDS011;17473;52.286;20.930;2023-01-29T02:49:40;11.23;;;6.53;;
30723;SDS011;17473;52.286;20.930;2023-01-29T02:52:18;9.00;;;6.07;;
30723;SDS011;17473;52.286;20.930;2023-01-29T02:54:58;12.80;;;6.53;;
30723;SDS011;17473;52.286;20.930;2023-01-29T02:57:38;11.60;;;6.23;;
30723;SDS011;17473;52.286;20.930;2023-01-29T03:00:11;10.20;;;5.87;;
30723;SDS011;17473;52.286;20.930;2023-01-29T03:05:32;12.03;;;6.17;;
30723;SDS011;17473;52.286;20.930;2023-01-29T03:08:10;16.97;;;7.03;;
30723;SDS011;17473;52.286;20.930;2023-01-29T03:10:48;11.70;;;6.63;;
30723;SDS011;17473;52.286;20.930;2023-01-29T03:16:37;9.13;;;5.97;;
30723;SDS011;17473;52.286;20.930;2023-01-29T03:19:12;13.10;;;6.13;;
30723;SDS011;17473;52.286;20.930;2023-01-29T03:21:59;12.03;;;6.43;;
30723;SDS011;17473;52.286;20.930;2023-01-29T03:24:33;11.77;;;6.23;;
30723;SDS011;17473;52.286;20.930;2023-01-29T03:27:27;9.27;;;6.50;;
30723;SDS011;17473;52.286;20.930;2023-01-29T03:31:02;10.20;;;5.57;;
30723;SDS011;17473;52.286;20.930;2023-01-29T03:37:07;14.63;;;6.30;;
30723;SDS011;17473;52.286;20.930;2023-01-29T03:40:03;11.40;;;6.07;;
30723;SDS011;17473;52.286;20.930;2023-01-29T03:48:08;9.17;;;5.83;;
30723;SDS011;17473;52.286;20.930;2023-01-29T03:53:44;9.33;;;4.83;;
30723;SDS011;17473;52.286;20.930;2023-01-29T03:56:35;10.60;;;6.07;;
30723;SDS011;17473;52.286;20.930;2023-01-29T03:59:30;9.60;;;5.50;;
30723;SDS011;17473;52.286;20.930;2023-01-29T04:02:08;13.77;;;6.27;;
30723;SDS011;17473;52.286;20.930;2023-01-29T04:04:42;10.83;;;6.27;;
30723;SDS011;17473;52.286;20.930;2023-01-29T04:07:16;8.60;;;5.90;;
30723;SDS011;17473;52.286;20.930;2023-01-29T04:09:53;11.07;;;6.40;;
30723;SDS011;17473;52.286;20.930;2023-01-29T04:13:03;10.87;;;5.93;;
30723;SDS011;17473;52.286;20.930;2023-01-29T04:15:36;11.27;;;6.53;;
30723;SDS011;17473;52.286;20.930;2023-01-29T04:18:12;10.30;;;5.97;;
30723;SDS011;17473;52.286;20.930;2023-01-29T04:20:39;9.77;;;6.20;;
30723;SDS011;17473;52.286;20.930;2023-01-29T04:23:17;12.17;;;6.57;;
30723;SDS011;17473;52.286;20.930;2023-01-29T04:25:51;9.90;;;6.23;;
30723;SDS011;17473;52.286;20.930;2023-01-29T04:28:40;11.77;;;6.27;;
30723;SDS011;17473;52.286;20.930;2023-01-29T04:31:30;10.23;;;5.93;;
30723;SDS011;17473;52.286;20.930;2023-01-29T04:34:20;10.07;;;6.03;;
30723;SDS011;17473;52.286;20.930;2023-01-29T04:39:33;11.93;;;5.87;;
30723;SDS011;17473;52.286;20.930;2023-01-29T04:42:19;8.73;;;5.97;;
30723;SDS011;17473;52.286;20.930;2023-01-29T04:53:23;12.47;;;5.67;;
30723;SDS011;17473;52.286;20.930;2023-01-29T04:56:19;7.57;;;5.70;;
30723;SDS011;17473;52.286;20.930;2023-01-29T04:59:06;10.17;;;6.67;;
30723;SDS011;17473;52.286;20.930;2023-01-29T05:01:39;9.90;;;6.43;;
30723;SDS011;17473;52.286;20.930;2023-01-29T05:04:07;9.20;;;5.47;;
30723;SDS011;17473;52.286;20.930;2023-01-29T05:06:39;11.43;;;6.23;;
30723;SDS011;17473;52.286;20.930;2023-01-29T05:09:08;10.07;;;6.40;;
30723;SDS011;17473;52.286;20.930;2023-01-29T05:11:38;13.00;;;6.73;;
30723;SDS011;17473;52.286;20.930;2023-01-29T05:14:06;9.87;;;6.10;;
30723;SDS011;17473;52.286;20.930;2023-01-29T05:16:44;11.43;;;6.03;;
30723;SDS011;17473;52.286;20.930;2023-01-29T05:19:16;9.73;;;6.60;;
30723;SDS011;17473;52.286;20.930;2023-01-29T05:21:44;13.47;;;6.97;;
30723;SDS011;17473;52.286;20.930;2023-01-29T05:24:15;8.43;;;6.00;;
30723;SDS011;17473;52.286;20.930;2023-01-29T05:26:49;11.37;;;6.47;;
30723;SDS011;17473;52.286;20.930;2023-01-29T05:29:42;10.23;;;6.43;;
30723;SDS011;17473;52.286;20.930;2023-01-29T05:32:12;12.90;;;7.27;;
30723;SDS011;17473;52.286;20.930;2023-01-29T05:34:40;11.03;;;6.90;;
30723;SDS011;17473;52.286;20.930;2023-01-29T05:37:08;11.60;;;6.43;;
30723;SDS011;17473;52.286;20.930;2023-01-29T05:39:35;13.30;;;6.70;;
30723;SDS011;17473;52.286;20.930;2023-01-29T05:42:02;10.77;;;7.00;;
30723;SDS011;17473;52.286;20.930;2023-01-29T05:44:29;11.90;;;6.77;;
30723;SDS011;17473;52.286;20.930;2023-01-29T05:46:56;12.27;;;7.00;;
30723;SDS011;17473;52.286;20.930;2023-01-29T05:49:23;11.03;;;6.47;;
30723;SDS011;17473;52.286;20.930;2023-01-29T05:51:51;11.47;;;6.90;;
30723;SDS011;17473;52.286;20.930;2023-01-29T05:54:18;10.83;;;7.03;;
30723;SDS011;17473;52.286;20.930;2023-01-29T05:56:45;10.83;;;6.90;;
30723;SDS011;17473;52.286;20.930;2023-01-29T05:59:13;10.70;;;6.70;;
30723;SDS011;17473;52.286;20.930;2023-01-29T06:01:41;12.43;;;7.50;;
30723;SDS011;17473;52.286;20.930;2023-01-29T06:04:08;12.13;;;6.90;;
30723;SDS011;17473;52.286;20.930;2023-01-29T06:06:35;11.53;;;7.10;;
30723;SDS011;17473;52.286;20.930;2023-01-29T06:09:03;13.23;;;7.20;;
30723;SDS011;17473;52.286;20.930;2023-01-29T06:11:30;11.63;;;6.70;;
30723;SDS011;17473;52.286;20.930;2023-01-29T06:13:57;12.53;;;7.27;;
30723;SDS011;17473;52.286;20.930;2023-01-29T06:16:24;13.83;;;7.57;;
30723;SDS011;17473;52.286;20.930;2023-01-29T06:18:51;15.60;;;7.60;;
30723;SDS011;17473;52.286;20.930;2023-01-29T06:21:18;13.83;;;9.10;;
30723;SDS011;17473;52.286;20.930;2023-01-29T06:23:45;11.53;;;7.57;;
30723;SDS011;17473;52.286;20.930;2023-01-29T06:26:13;14.80;;;8.60;;
30723;SDS011;17473;52.286;20.930;2023-01-29T06:28:42;15.27;;;8.50;;
30723;SDS011;17473;52.286;20.930;2023-01-29T06:31:11;17.37;;;8.40;;
30723;SDS011;17473;52.286;20.930;2023-01-29T06:33:58;16.17;;;8.23;;
30723;SDS011;17473;52.286;20.930;2023-01-29T06:36:25;17.33;;;7.90;;
30723;SDS011;17473;52.286;20.930;2023-01-29T06:38:52;14.53;;;8.23;;
30723;SDS011;17473;52.286;20.930;2023-01-29T06:41:19;12.53;;;7.50;;
30723;SDS011;17473;52.286;20.930;2023-01-29T06:43:50;18.33;;;8.40;;
30723;SDS011;17473;52.286;20.930;2023-01-29T06:46:17;16.73;;;8.67;;
30723;SDS011;17473;52.286;20.930;2023-01-29T06:48:45;14.83;;;8.30;;
30723;SDS011;17473;52.286;20.930;2023-01-29T06:51:12;15.27;;;8.23;;
30723;SDS011;17473;52.286;20.930;2023-01-29T06:53:39;16.40;;;8.00;;
30723;SDS011;17473;52.286;20.930;2023-01-29T06:56:08;17.47;;;8.60;;
30723;SDS011;17473;52.286;20.930;2023-01-29T06:58:36;19.53;;;8.50;;
30723;SDS011;17473;52.286;20.930;2023-01-29T07:01:04;17.43;;;8.80;;
30723;SDS011;17473;52.286;20.930;2023-01-29T07:03:33;15.17;;;8.40;;
30723;SDS011;17473;52.286;20.930;2023-01-29T07:06:00;14.43;;;8.50;;
30723;SDS011;17473;52.286;20.930;2023-01-29T07:08:28;13.30;;;7.93;;
30723;SDS011;17473;52.286;20.930;2023-01-29T07:10:58;18.60;;;9.43;;
30723;SDS011;17473;52.286;20.930;2023-01-29T07:13:26;14.67;;;8.33;;
30723;SDS011;17473;52.286;20.930;2023-01-29T07:15:56;17.53;;;8.37;;
30723;SDS011;17473;52.286;20.930;2023-01-29T07:18:28;16.30;;;8.70;;
30723;SDS011;17473;52.286;20.930;2023-01-29T07:20:56;14.80;;;7.90;;
30723;SDS011;17473;52.286;20.930;2023-01-29T07:23:23;14.80;;;8.30;;
30723;SDS011;17473;52.286;20.930;2023-01-29T07:25:51;17.93;;;9.23;;
30723;SDS011;17473;52.286;20.930;2023-01-29T07:28:18;15.67;;;8.40;;
30723;SDS011;17473;52.286;20.930;2023-01-29T07:30:45;16.40;;;9.03;;
30723;SDS011;17473;52.286;20.930;2023-01-29T07:33:13;16.47;;;9.30;;
30723;SDS011;17473;52.286;20.930;2023-01-29T07:35:41;17.23;;;8.37;;
30723;SDS011;17473;52.286;20.930;2023-01-29T07:38:09;14.17;;;8.63;;
30723;SDS011;17473;52.286;20.930;2023-01-29T07:40:37;13.97;;;8.17;;
30723;SDS011;17473;52.286;20.930;2023-01-29T07:43:05;17.07;;;9.37;;
30723;SDS011;17473;52.286;20.930;2023-01-29T07:45:35;16.73;;;8.63;;
30723;SDS011;17473;52.286;20.930;2023-01-29T07:48:04;16.73;;;9.13;;
30723;SDS011;17473;52.286;20.930;2023-01-29T07:50:35;15.70;;;8.50;;
30723;SDS011;17473;52.286;20.930;2023-01-29T07:53:02;14.73;;;8.57;;
30723;SDS011;17473;52.286;20.930;2023-01-29T07:55:30;13.90;;;8.17;;
30723;SDS011;17473;52.286;20.930;2023-01-29T07:57:59;14.50;;;8.67;;
30723;SDS011;17473;52.286;20.930;2023-01-29T08:00:29;16.83;;;8.37;;
30723;SDS011;17473;52.286;20.930;2023-01-29T08:03:01;14.70;;;8.60;;
30723;SDS011;17473;52.286;20.930;2023-01-29T08:05:30;20.57;;;9.23;;
30723;SDS011;17473;52.286;20.930;2023-01-29T08:07:57;15.43;;;8.73;;
30723;SDS011;17473;52.286;20.930;2023-01-29T08:10:33;16.53;;;9.07;;
30723;SDS011;17473;52.286;20.930;2023-01-29T08:13:02;14.40;;;7.57;;
30723;SDS011;17473;52.286;20.930;2023-01-29T08:15:30;14.63;;;8.10;;
30723;SDS011;17473;52.286;20.930;2023-01-29T08:17:59;15.73;;;8.13;;
30723;SDS011;17473;52.286;20.930;2023-01-29T08:20:27;15.53;;;8.60;;
30723;SDS011;17473;52.286;20.930;2023-01-29T08:23:01;16.23;;;8.83;;
30723;SDS011;17473;52.286;20.930;2023-01-29T08:25:31;14.13;;;7.70;;
30723;SDS011;17473;52.286;20.930;2023-01-29T08:27:59;14.03;;;8.03;;
30723;SDS011;17473;52.286;20.930;2023-01-29T08:30:27;17.50;;;8.13;;
30723;SDS011;17473;52.286;20.930;2023-01-29T08:32:57;13.77;;;7.67;;
30723;SDS011;17473;52.286;20.930;2023-01-29T08:35:24;14.00;;;7.83;;
30723;SDS011;17473;52.286;20.930;2023-01-29T08:37:52;15.93;;;7.97;;
30723;SDS011;17473;52.286;20.930;2023-01-29T08:40:25;13.70;;;7.43;;
30723;SDS011;17473;52.286;20.930;2023-01-29T08:42:57;17.53;;;8.13;;
30723;SDS011;17473;52.286;20.930;2023-01-29T08:45:33;13.73;;;7.97;;
30723;SDS011;17473;52.286;20.930;2023-01-29T08:48:08;14.53;;;9.50;;
30723;SDS011;17473;52.286;20.930;2023-01-29T08:50:36;13.90;;;7.97;;
30723;SDS011;17473;52.286;20.930;2023-01-29T08:53:04;15.43;;;7.90;;
30723;SDS011;17473;52.286;20.930;2023-01-29T08:55:34;17.63;;;8.83;;
30723;SDS011;17473;52.286;20.930;2023-01-29T08:58:03;12.97;;;7.70;;
30723;SDS011;17473;52.286;20.930;2023-01-29T09:00:32;18.40;;;8.23;;
30723;SDS011;17473;52.286;20.930;2023-01-29T09:03:00;14.13;;;7.93;;
30723;SDS011;17473;52.286;20.930;2023-01-29T09:05:28;15.80;;;7.90;;
30723;SDS011;17473;52.286;20.930;2023-01-29T09:07:55;15.33;;;8.47;;
30723;SDS011;17473;52.286;20.930;2023-01-29T09:10:23;17.80;;;9.70;;
30723;SDS011;17473;52.286;20.930;2023-01-29T09:12:50;19.93;;;9.33;;
30723;SDS011;17473;52.286;20.930;2023-01-29T09:15:17;15.33;;;8.33;;
30723;SDS011;17473;52.286;20.930;2023-01-29T09:17:45;18.03;;;7.70;;
30723;SDS011;17473;52.286;20.930;2023-01-29T09:20:12;12.83;;;7.77;;
30723;SDS011;17473;52.286;20.930;2023-01-29T09:22:39;12.03;;;7.17;;
30723;SDS011;17473;52.286;20.930;2023-01-29T09:25:07;10.77;;;6.87;;
30723;SDS011;17473;52.286;20.930;2023-01-29T09:27:34;21.87;;;7.97;;
30723;SDS011;17473;52.286;20.930;2023-01-29T09:30:01;13.20;;;8.07;;
30723;SDS011;17473;52.286;20.930;2023-01-29T09:32:31;13.07;;;8.43;;
30723;SDS011;17473;52.286;20.930;2023-01-29T09:35:20;14.27;;;7.90;;
30723;SDS011;17473;52.286;20.930;2023-01-29T09:37:49;17.53;;;8.73;;
30723;SDS011;17473;52.286;20.930;2023-01-29T09:40:24;15.00;;;8.40;;
30723;SDS011;17473;52.286;20.930;2023-01-29T09:43:02;15.53;;;9.33;;
30723;SDS011;17473;52.286;20.930;2023-01-29T09:45:38;15.53;;;8.13;;
30723;SDS011;17473;52.286;20.930;2023-01-29T09:48:16;15.37;;;8.20;;
30723;SDS011;17473;52.286;20.930;2023-01-29T09:50:46;14.23;;;8.60;;
30723;SDS011;17473;52.286;20.930;2023-01-29T09:56:10;15.40;;;8.73;;
30723;SDS011;17473;52.286;20.930;2023-01-29T09:58:45;14.83;;;8.57;;
30723;SDS011;17473;52.286;20.930;2023-01-29T10:01:28;15.90;;;7.80;;
30723;SDS011;17473;52.286;20.930;2023-01-29T10:10:47;17.70;;;7.77;;
30723;SDS011;17473;52.286;20.930;2023-01-29T10:13:54;14.40;;;7.77;;
30723;SDS011;17473;52.286;20.930;2023-01-29T10:19:27;11.80;;;8.00;;
30723;SDS011;17473;52.286;20.930;2023-01-29T10:25:19;16.17;;;7.97;;
30723;SDS011;17473;52.286;20.930;2023-01-29T10:27:49;15.80;;;7.90;;
30723;SDS011;17473;52.286;20.930;2023-01-29T10:32:58;16.93;;;9.17;;
30723;SDS011;17473;52.286;20.930;2023-01-29T10:35:42;15.23;;;7.70;;
30723;SDS011;17473;52.286;20.930;2023-01-29T10:38:22;16.40;;;7.90;;
30723;SDS011;17473;52.286;20.930;2023-01-29T10:52:22;13.77;;;8.40;;
30723;SDS011;17473;52.286;20.930;2023-01-29T11:00:55;19.47;;;9.20;;
30723;SDS011;17473;52.286;20.930;2023-01-29T11:03:23;13.63;;;8.70;;
30723;SDS011;17473;52.286;20.930;2023-01-29T11:05:57;17.03;;;9.53;;
30723;SDS011;17473;52.286;20.930;2023-01-29T11:11:17;17.27;;;9.27;;
30723;SDS011;17473;52.286;20.930;2023-01-29T11:16:27;16.77;;;9.23;;
30723;SDS011;17473;52.286;20.930;2023-01-29T11:18:59;14.07;;;8.60;;
30723;SDS011;17473;52.286;20.930;2023-01-29T11:21:27;11.90;;;8.63;;
30723;SDS011;17473;52.286;20.930;2023-01-29T11:24:11;16.13;;;9.57;;
30723;SDS011;17473;52.286;20.930;2023-01-29T11:26:45;15.23;;;9.70;;
30723;SDS011;17473;52.286;20.930;2023-01-29T11:29:36;21.13;;;9.83;;
30723;SDS011;17473;52.286;20.930;2023-01-29T11:32:12;15.60;;;9.13;;
30723;SDS011;17473;52.286;20.930;2023-01-29T11:35:19;15.67;;;8.73;;
30723;SDS011;17473;52.286;20.930;2023-01-29T11:37:47;19.23;;;10.07;;
30723;SDS011;17473;52.286;20.930;2023-01-29T11:42:52;13.30;;;7.97;;
30723;SDS011;17473;52.286;20.930;2023-01-29T11:47:53;15.23;;;8.93;;
30723;SDS011;17473;52.286;20.930;2023-01-29T11:50:23;16.63;;;9.20;;
30723;SDS011;17473;52.286;20.930;2023-01-29T11:52:54;15.17;;;9.10;;
30723;SDS011;17473;52.286;20.930;2023-01-29T11:55:27;13.63;;;8.50;;
30723;SDS011;17473;52.286;20.930;2023-01-29T11:58:16;14.40;;;9.40;;
30723;SDS011;17473;52.286;20.930;2023-01-29T12:00:52;12.83;;;8.50;;
30723;SDS011;17473;52.286;20.930;2023-01-29T12:06:22;14.27;;;8.77;;
30723;SDS011;17473;52.286;20.930;2023-01-29T12:08:57;15.77;;;9.20;;
30723;SDS011;17473;52.286;20.930;2023-01-29T12:11:31;14.33;;;8.40;;
30723;SDS011;17473;52.286;20.930;2023-01-29T12:14:01;15.33;;;9.37;;
30723;SDS011;17473;52.286;20.930;2023-01-29T12:16:38;15.00;;;8.80;;
30723;SDS011;17473;52.286;20.930;2023-01-29T12:19:36;17.10;;;9.80;;
30723;SDS011;17473;52.286;20.930;2023-01-29T12:22:16;17.10;;;9.53;;
30723;SDS011;17473;52.286;20.930;2023-01-29T12:31:12;19.07;;;10.60;;
30723;SDS011;17473;52.286;20.930;2023-01-29T12:36:55;14.63;;;10.03;;
30723;SDS011;17473;52.286;20.930;2023-01-29T12:39:37;20.30;;;10.20;;
30723;SDS011;17473;52.286;20.930;2023-01-29T12:42:08;16.53;;;10.03;;
30723;SDS011;17473;52.286;20.930;2023-01-29T12:44:49;18.40;;;10.57;;
30723;SDS011;17473;52.286;20.930;2023-01-29T12:50:17;16.37;;;9.83;;
30723;SDS011;17473;52.286;20.930;2023-01-29T12:52:58;19.00;;;10.40;;
30723;SDS011;17473;52.286;20.930;2023-01-29T12:56:01;16.67;;;10.30;;
30723;SDS011;17473;52.286;20.930;2023-01-29T12:58:54;16.73;;;10.60;;
30723;SDS011;17473;52.286;20.930;2023-01-29T13:06:46;19.23;;;11.03;;
30723;SDS011;17473;52.286;20.930;2023-01-29T13:09:20;19.53;;;11.33;;
30723;SDS011;17473;52.286;20.930;2023-01-29T13:11:55;18.13;;;11.67;;
30723;SDS011;17473;52.286;20.930;2023-01-29T13:14:45;21.33;;;11.67;;
30723;SDS011;17473;52.286;20.930;2023-01-29T13:17:39;19.97;;;11.63;;
30723;SDS011;17473;52.286;20.930;2023-01-29T13:22:55;19.13;;;11.70;;
30723;SDS011;17473;52.286;20.930;2023-01-29T13:25:40;26.40;;;13.13;;
30723;SDS011;17473;52.286;20.930;2023-01-29T13:28:18;22.60;;;12.90;;
30723;SDS011;17473;52.286;20.930;2023-01-29T13:33:37;19.30;;;12.10;;
30723;SDS011;17473;52.286;20.930;2023-01-29T13:36:16;22.63;;;12.20;;
30723;SDS011;17473;52.286;20.930;2023-01-29T13:38:54;21.03;;;12.37;;
30723;SDS011;17473;52.286;20.930;2023-01-29T13:41:41;17.33;;;11.10;;
30723;SDS011;17473;52.286;20.930;2023-01-29T13:44:28;22.10;;;13.13;;
30723;SDS011;17473;52.286;20.930;2023-01-29T13:47:02;24.70;;;12.67;;
30723;SDS011;17473;52.286;20.930;2023-01-29T13:49:43;21.60;;;12.50;;
30723;SDS011;17473;52.286;20.930;2023-01-29T14:00:55;24.17;;;14.20;;
30723;SDS011;17473;52.286;20.930;2023-01-29T14:07:56;24.47;;;14.40;;
30723;SDS011;17473;52.286;20.930;2023-01-29T14:10:29;23.30;;;14.00;;
30723;SDS011;17473;52.286;20.930;2023-01-29T14:15:29;29.67;;;15.17;;
30723;SDS011;17473;52.286;20.930;2023-01-29T14:23:55;27.90;;;15.57;;
30723;SDS011;17473;52.286;20.930;2023-01-29T14:31:30;30.60;;;16.93;;
30723;SDS011;17473;52.286;20.930;2023-01-29T14:34:05;31.80;;;16.40;;
30723;SDS011;17473;52.286;20.930;2023-01-29T14:37:14;28.57;;;16.13;;
30723;SDS011;17473;52.286;20.930;2023-01-29T14:39:54;26.87;;;15.57;;
30723;SDS011;17473;52.286;20.930;2023-01-29T14:45:35;29.30;;;15.60;;
30723;SDS011;17473;52.286;20.930;2023-01-29T14:50:46;30.77;;;15.87;;
30723;SDS011;17473;52.286;20.930;2023-01-29T14:59:04;31.23;;;17.30;;
30723;SDS011;17473;52.286;20.930;2023-01-29T15:01:54;34.23;;;16.27;;
30723;SDS011;17473;52.286;20.930;2023-01-29T15:04:28;34.57;;;17.27;;
30723;SDS011;17473;52.286;20.930;2023-01-29T15:09:40;36.03;;;17.50;;
30723;SDS011;17473;52.286;20.930;2023-01-29T15:15:19;32.40;;;16.37;;
30723;SDS011;17473;52.286;20.930;2023-01-29T15:18:29;31.97;;;17.33;;
30723;SDS011;17473;52.286;20.930;2023-01-29T15:21:11;29.50;;;17.33;;
30723;SDS011;17473;52.286;20.930;2023-01-29T15:23:43;32.27;;;16.40;;
30723;SDS011;17473;52.286;20.930;2023-01-29T15:26:20;32.43;;;16.20;;
30723;SDS011;17473;52.286;20.930;2023-01-29T15:28:55;25.87;;;15.20;;
30723;SDS011;17473;52.286;20.930;2023-01-29T15:31:30;27.90;;;15.53;;
30723;SDS011;17473;52.286;20.930;2023-01-29T15:33:58;26.13;;;14.80;;
30723;SDS011;17473;52.286;20.930;2023-01-29T15:36:32;24.37;;;14.57;;
30723;SDS011;17473;52.286;20.930;2023-01-29T15:39:14;23.93;;;13.97;;
30723;SDS011;17473;52.286;20.930;2023-01-29T15:41:44;24.37;;;13.37;;
30723;SDS011;17473;52.286;20.930;2023-01-29T15:44:13;22.77;;;13.97;;
30723;SDS011;17473;52.286;20.930;2023-01-29T15:46:44;21.43;;;12.87;;
30723;SDS011;17473;52.286;20.930;2023-01-29T15:51:57;21.17;;;13.50;;
30723;SDS011;17473;52.286;20.930;2023-01-29T15:54:32;20.07;;;12.60;;
30723;SDS011;17473;52.286;20.930;2023-01-29T15:57:00;23.70;;;13.03;;
30723;SDS011;17473;52.286;20.930;2023-01-29T15:59:29;17.60;;;11.83;;
30723;SDS011;17473;52.286;20.930;2023-01-29T16:05:04;21.93;;;13.07;;
30723;SDS011;17473;52.286;20.930;2023-01-29T16:07:38;22.33;;;13.67;;
30723;SDS011;17473;52.286;20.930;2023-01-29T16:10:13;27.13;;;14.40;;
30723;SDS011;17473;52.286;20.930;2023-01-29T16:12:52;27.43;;;14.97;;
30723;SDS011;17473;52.286;20.930;2023-01-29T16:15:27;23.10;;;14.17;;
30723;SDS011;17473;52.286;20.930;2023-01-29T16:18:02;23.30;;;14.03;;
30723;SDS011;17473;52.286;20.930;2023-01-29T16:20:46;22.63;;;14.70;;
30723;SDS011;17473;52.286;20.930;2023-01-29T16:23:20;26.80;;;15.00;;
30723;SDS011;17473;52.286;20.930;2023-01-29T16:25:55;24.07;;;14.70;;
30723;SDS011;17473;52.286;20.930;2023-01-29T16:28:30;25.13;;;15.27;;
30723;SDS011;17473;52.286;20.930;2023-01-29T16:30:58;26.50;;;15.80;;
30723;SDS011;17473;52.286;20.930;2023-01-29T16:33:33;23.50;;;14.97;;
30723;SDS011;17473;52.286;20.930;2023-01-29T16:36:07;26.47;;;16.33;;
30723;SDS011;17473;52.286;20.930;2023-01-29T16:38:50;26.93;;;16.77;;
30723;SDS011;17473;52.286;20.930;2023-01-29T16:41:28;29.27;;;16.13;;
30723;SDS011;17473;52.286;20.930;2023-01-29T16:44:29;30.20;;;17.13;;
30723;SDS011;17473;52.286;20.930;2023-01-29T16:47:10;32.17;;;16.83;;
30723;SDS011;17473;52.286;20.930;2023-01-29T16:52:18;26.03;;;16.93;;
30723;SDS011;17473;52.286;20.930;2023-01-29T16:54:50;30.43;;;16.37;;
30723;SDS011;17473;52.286;20.930;2023-01-29T16:57:28;31.57;;;18.03;;
30723;SDS011;17473;52.286;20.930;2023-01-29T16:59:59;34.60;;;17.60;;
30723;SDS011;17473;52.286;20.930;2023-01-29T17:02:33;31.60;;;17.53;;
30723;SDS011;17473;52.286;20.930;2023-01-29T17:05:05;32.13;;;17.50;;
30723;SDS011;17473;52.286;20.930;2023-01-29T17:07:43;30.87;;;17.97;;
30723;SDS011;17473;52.286;20.930;2023-01-29T17:10:15;30.53;;;18.20;;
30723;SDS011;17473;52.286;20.930;2023-01-29T17:12:49;30.80;;;17.97;;
30723;SDS011;17473;52.286;20.930;2023-01-29T17:18:16;29.80;;;17.47;;
30723;SDS011;17473;52.286;20.930;2023-01-29T17:20:47;38.13;;;18.77;;
30723;SDS011;17473;52.286;20.930;2023-01-29T17:23:15;35.63;;;19.03;;
30723;SDS011;17473;52.286;20.930;2023-01-29T17:25:42;30.37;;;18.47;;
30723;SDS011;17473;52.286;20.930;2023-01-29T17:28:11;32.87;;;18.07;;
30723;SDS011;17473;52.286;20.930;2023-01-29T17:30:40;32.43;;;18.17;;
30723;SDS011;17473;52.286;20.930;2023-01-29T17:33:16;31.10;;;19.33;;
30723;SDS011;17473;52.286;20.930;2023-01-29T17:35:48;29.13;;;17.80;;
30723;SDS011;17473;52.286;20.930;2023-01-29T17:38:16;31.53;;;17.83;;
30723;SDS011;17473;52.286;20.930;2023-01-29T17:40:55;33.83;;;18.23;;
30723;SDS011;17473;52.286;20.930;2023-01-29T17:43:32;34.13;;;17.90;;
30723;SDS011;17473;52.286;20.930;2023-01-29T17:46:00;32.33;;;18.83;;
30723;SDS011;17473;52.286;20.930;2023-01-29T17:48:28;28.63;;;18.47;;
30723;SDS011;17473;52.286;20.930;2023-01-29T17:50:57;30.57;;;18.67;;
30723;SDS011;17473;52.286;20.930;2023-01-29T17:53:28;27.50;;;16.83;;
30723;SDS011;17473;52.286;20.930;2023-01-29T17:56:15;31.97;;;17.77;;